sensor_id;sensor_type;location;lat;lon;timestamp;temperature;humidity
21772;DHT22;11047;47.904;8.110;2023-05-14T00:01:44;6.10;99.90
21772;DHT22;11047;47.904;8.110;2023-05-14T00:04:11;6.20;99.90
21772;DHT22;11047;47.904;8.110;2023-05-14T00:06:38;6.20;99.90
21772;DHT22;11047;47.904;8.110;2023-05-14T00:09:06;6.20;99.90
21772;DHT22;11047;47.904;8.110;2023-05-14T00:11:33;6.30;99.90
21772;DHT22;11047;47.904;8.110;2023-05-14T00:14:00;6.20;99.90
21772;DHT22;11047;47.904;8.110;2023-05-14T00:16:27;6.30;99.90
21772;DHT22;11047;47.904;8.110;2023-05-14T00:18:54;6.30;99.90
21772;DHT22;11047;47.904;8.110;2023-05-14T00:21:21;6.30;99.90
21772;DHT22;11047;47.904;8.110;2023-05-14T00:23:48;6.30;99.90
21772;DHT22;11047;47.904;8.110;2023-05-14T00:26:16;6.40;99.90
21772;DHT22;11047;47.904;8.110;2023-05-14T00:28:43;6.50;99.90
21772;DHT22;11047;47.904;8.110;2023-05-14T00:31:10;6.60;99.90
21772;DHT22;11047;47.904;8.110;2023-05-14T00:33:37;6.60;99.90
21772;DHT22;11047;47.904;8.110;2023-05-14T00:36:04;6.70;99.90
21772;DHT22;11047;47.904;8.110;2023-05-14T00:38:31;6.70;99.90
21772;DHT22;11047;47.904;8.110;2023-05-14T00:40:58;6.80;99.90
21772;DHT22;11047;47.904;8.110;2023-05-14T00:43:26;6.80;99.90
21772;DHT22;11047;47.904;8.110;2023-05-14T00:45:54;6.90;99.90
21772;DHT22;11047;47.904;8.110;2023-05-14T00:48:23;7.00;99.90
21772;DHT22;11047;47.904;8.110;2023-05-14T00:50:50;7.00;99.90
21772;DHT22;11047;47.904;8.110;2023-05-14T00:53:18;7.00;99.90
21772;DHT22;11047;47.904;8.110;2023-05-14T00:55:46;6.90;99.90
21772;DHT22;11047;47.904;8.110;2023-05-14T00:58:14;7.00;99.90
21772;DHT22;11047;47.904;8.110;2023-05-14T01:00:42;7.10;99.90
21772;DHT22;11047;47.904;8.110;2023-05-14T01:03:09;7.10;99.90
21772;DHT22;11047;47.904;8.110;2023-05-14T01:05:42;7.10;99.90
21772;DHT22;11047;47.904;8.110;2023-05-14T01:08:20;7.10;99.90
21772;DHT22;11047;47.904;8.110;2023-05-14T01:10:56;7.10;99.90
21772;DHT22;11047;47.904;8.110;2023-05-14T01:13:29;7.20;99.90
21772;DHT22;11047;47.904;8.110;2023-05-14T01:16:02;7.10;99.90
21772;DHT22;11047;47.904;8.110;2023-05-14T01:18:31;6.90;99.90
21772;DHT22;11047;47.904;8.110;2023-05-14T01:20:58;7.00;99.90
21772;DHT22;11047;47.904;8.110;2023-05-14T01:23:27;6.90;99.90
21772;DHT22;11047;47.904;8.110;2023-05-14T01:25:53;6.90;99.90
21772;DHT22;11047;47.904;8.110;2023-05-14T01:28:25;7.00;99.90
21772;DHT22;11047;47.904;8.110;2023-05-14T01:30:56;7.00;99.90
21772;DHT22;11047;47.904;8.110;2023-05-14T01:33:28;7.10;99.90
21772;DHT22;11047;47.904;8.110;2023-05-14T01:35:55;7.10;99.90
21772;DHT22;11047;47.904;8.110;2023-05-14T01:38:23;7.10;99.90
21772;DHT22;11047;47.904;8.110;2023-05-14T01:40:53;7.10;99.90
21772;DHT22;11047;47.904;8.110;2023-05-14T01:43:22;7.20;99.90
21772;DHT22;11047;47.904;8.110;2023-05-14T01:45:49;7.10;99.90
21772;DHT22;11047;47.904;8.110;2023-05-14T01:48:16;7.10;99.90
21772;DHT22;11047;47.904;8.110;2023-05-14T01:50:43;7.10;99.90
21772;DHT22;11047;47.904;8.110;2023-05-14T01:53:09;7.10;99.90
21772;DHT22;11047;47.904;8.110;2023-05-14T01:55:36;7.30;99.90
21772;DHT22;11047;47.904;8.110;2023-05-14T01:58:05;7.40;99.90
21772;DHT22;11047;47.904;8.110;2023-05-14T02:00:32;7.40;99.90
21772;DHT22;11047;47.904;8.110;2023-05-14T02:02:59;7.40;99.90
21772;DHT22;11047;47.904;8.110;2023-05-14T02:05:25;7.30;99.90
21772;DHT22;11047;47.904;8.110;2023-05-14T02:07:52;7.30;99.90
21772;DHT22;11047;47.904;8.110;2023-05-14T02:10:19;7.40;99.90
21772;DHT22;11047;47.904;8.110;2023-05-14T02:12:46;7.40;99.90
21772;DHT22;11047;47.904;8.110;2023-05-14T02:15:14;7.50;99.90
21772;DHT22;11047;47.904;8.110;2023-05-14T02:17:41;7.60;99.90
21772;DHT22;11047;47.904;8.110;2023-05-14T02:20:09;7.60;99.90
21772;DHT22;11047;47.904;8.110;2023-05-14T02:22:36;7.50;99.90
21772;DHT22;11047;47.904;8.110;2023-05-14T02:25:07;7.40;99.90
21772;DHT22;11047;47.904;8.110;2023-05-14T02:27:34;7.40;99.90
21772;DHT22;11047;47.904;8.110;2023-05-14T02:30:01;7.50;99.90
21772;DHT22;11047;47.904;8.110;2023-05-14T02:32:29;7.50;99.90
21772;DHT22;11047;47.904;8.110;2023-05-14T02:34:56;7.60;99.90
21772;DHT22;11047;47.904;8.110;2023-05-14T02:37:23;7.50;99.90
21772;DHT22;11047;47.904;8.110;2023-05-14T02:39:50;7.50;99.90
21772;DHT22;11047;47.904;8.110;2023-05-14T02:42:26;7.50;99.90
21772;DHT22;11047;47.904;8.110;2023-05-14T02:44:53;7.60;99.90
21772;DHT22;11047;47.904;8.110;2023-05-14T02:47:20;7.60;99.90
21772;DHT22;11047;47.904;8.110;2023-05-14T02:49:48;7.60;99.90
21772;DHT22;11047;47.904;8.110;2023-05-14T02:52:15;7.50;99.90
21772;DHT22;11047;47.904;8.110;2023-05-14T02:54:42;7.60;99.90
21772;DHT22;11047;47.904;8.110;2023-05-14T02:57:09;7.60;99.90
21772;DHT22;11047;47.904;8.110;2023-05-14T02:59:36;7.70;99.90
21772;DHT22;11047;47.904;8.110;2023-05-14T03:02:03;7.70;99.90
21772;DHT22;11047;47.904;8.110;2023-05-14T03:04:30;7.70;99.90
21772;DHT22;11047;47.904;8.110;2023-05-14T03:06:58;7.80;99.90
21772;DHT22;11047;47.904;8.110;2023-05-14T03:09:25;7.70;99.90
21772;DHT22;11047;47.904;8.110;2023-05-14T03:11:52;7.70;99.90
21772;DHT22;11047;47.904;8.110;2023-05-14T03:14:19;7.70;99.90
21772;DHT22;11047;47.904;8.110;2023-05-14T03:16:46;7.70;99.90
21772;DHT22;11047;47.904;8.110;2023-05-14T03:19:13;7.60;99.90
21772;DHT22;11047;47.904;8.110;2023-05-14T03:21:40;7.70;99.90
21772;DHT22;11047;47.904;8.110;2023-05-14T03:24:08;7.70;99.90
21772;DHT22;11047;47.904;8.110;2023-05-14T03:26:35;7.70;99.90
21772;DHT22;11047;47.904;8.110;2023-05-14T03:29:02;7.70;99.90
21772;DHT22;11047;47.904;8.110;2023-05-14T03:31:29;7.70;99.90
21772;DHT22;11047;47.904;8.110;2023-05-14T03:33:56;7.70;99.90
21772;DHT22;11047;47.904;8.110;2023-05-14T03:36:23;7.80;99.90
21772;DHT22;11047;47.904;8.110;2023-05-14T03:38:50;7.80;99.90
21772;DHT22;11047;47.904;8.110;2023-05-14T03:41:18;7.80;99.90
21772;DHT22;11047;47.904;8.110;2023-05-14T03:43:46;7.80;99.90
21772;DHT22;11047;47.904;8.110;2023-05-14T03:46:13;7.90;99.90
21772;DHT22;11047;47.904;8.110;2023-05-14T03:48:40;7.90;99.90
21772;DHT22;11047;47.904;8.110;2023-05-14T03:51:07;7.90;99.90
21772;DHT22;11047;47.904;8.110;2023-05-14T03:53:34;8.00;99.90
21772;DHT22;11047;47.904;8.110;2023-05-14T03:56:01;8.00;99.90
21772;DHT22;11047;47.904;8.110;2023-05-14T03:58:29;8.10;99.90
21772;DHT22;11047;47.904;8.110;2023-05-14T04:00:56;8.00;99.90
21772;DHT22;11047;47.904;8.110;2023-05-14T04:03:23;8.10;99.90
21772;DHT22;11047;47.904;8.110;2023-05-14T04:05:50;8.10;99.90
21772;DHT22;11047;47.904;8.110;2023-05-14T04:08:17;8.10;99.90
21772;DHT22;11047;47.904;8.110;2023-05-14T04:10:43;8.00;99.90
21772;DHT22;11047;47.904;8.110;2023-05-14T04:13:10;7.90;99.90
21772;DHT22;11047;47.904;8.110;2023-05-14T04:15:39;8.00;99.90
21772;DHT22;11047;47.904;8.110;2023-05-14T04:18:05;8.00;99.90
21772;DHT22;11047;47.904;8.110;2023-05-14T04:20:32;8.10;99.90
21772;DHT22;11047;47.904;8.110;2023-05-14T04:22:59;8.10;99.90
21772;DHT22;11047;47.904;8.110;2023-05-14T04:25:26;8.10;99.90
21772;DHT22;11047;47.904;8.110;2023-05-14T04:27:54;8.20;99.90
21772;DHT22;11047;47.904;8.110;2023-05-14T04:30:21;8.30;99.90
21772;DHT22;11047;47.904;8.110;2023-05-14T04:32:49;8.30;99.90
21772;DHT22;11047;47.904;8.110;2023-05-14T04:35:16;8.30;99.90
21772;DHT22;11047;47.904;8.110;2023-05-14T04:37:44;8.30;99.90
21772;DHT22;11047;47.904;8.110;2023-05-14T04:40:11;8.60;99.90
21772;DHT22;11047;47.904;8.110;2023-05-14T04:42:41;8.10;99.90
21772;DHT22;11047;47.904;8.110;2023-05-14T04:45:08;8.00;99.90
21772;DHT22;11047;47.904;8.110;2023-05-14T04:47:36;8.10;99.90
21772;DHT22;11047;47.904;8.110;2023-05-14T04:50:05;8.10;99.90
21772;DHT22;11047;47.904;8.110;2023-05-14T04:52:33;8.00;99.90
21772;DHT22;11047;47.904;8.110;2023-05-14T04:55:00;7.90;99.90
21772;DHT22;11047;47.904;8.110;2023-05-14T04:57:27;8.00;99.90
21772;DHT22;11047;47.904;8.110;2023-05-14T04:59:54;8.10;99.90
21772;DHT22;11047;47.904;8.110;2023-05-14T05:02:21;8.30;99.90
21772;DHT22;11047;47.904;8.110;2023-05-14T05:04:48;8.30;99.90
21772;DHT22;11047;47.904;8.110;2023-05-14T05:07:16;8.70;99.90
21772;DHT22;11047;47.904;8.110;2023-05-14T05:09:43;8.60;99.90
21772;DHT22;11047;47.904;8.110;2023-05-14T05:12:10;8.90;99.90
21772;DHT22;11047;47.904;8.110;2023-05-14T05:14:37;8.70;99.90
21772;DHT22;11047;47.904;8.110;2023-05-14T05:17:04;8.60;99.90
21772;DHT22;11047;47.904;8.110;2023-05-14T05:19:31;8.70;99.90
21772;DHT22;11047;47.904;8.110;2023-05-14T05:21:58;8.60;99.90
21772;DHT22;11047;47.904;8.110;2023-05-14T05:24:26;9.10;99.90
21772;DHT22;11047;47.904;8.110;2023-05-14T05:26:53;9.10;99.90
21772;DHT22;11047;47.904;8.110;2023-05-14T05:29:20;9.30;99.90
21772;DHT22;11047;47.904;8.110;2023-05-14T05:31:47;8.70;99.90
21772;DHT22;11047;47.904;8.110;2023-05-14T05:34:14;9.20;99.90
21772;DHT22;11047;47.904;8.110;2023-05-14T05:36:41;8.80;99.90
21772;DHT22;11047;47.904;8.110;2023-05-14T05:39:08;8.70;99.90
21772;DHT22;11047;47.904;8.110;2023-05-14T05:41:37;8.80;99.90
21772;DHT22;11047;47.904;8.110;2023-05-14T05:44:04;8.80;99.90
21772;DHT22;11047;47.904;8.110;2023-05-14T05:46:30;8.90;99.90
21772;DHT22;11047;47.904;8.110;2023-05-14T05:48:57;9.00;99.90
21772;DHT22;11047;47.904;8.110;2023-05-14T05:51:24;9.00;99.90
21772;DHT22;11047;47.904;8.110;2023-05-14T05:53:51;8.90;99.90
21772;DHT22;11047;47.904;8.110;2023-05-14T05:56:18;9.00;99.90
21772;DHT22;11047;47.904;8.110;2023-05-14T05:58:47;9.00;99.90
21772;DHT22;11047;47.904;8.110;2023-05-14T06:01:13;9.10;99.90
21772;DHT22;11047;47.904;8.110;2023-05-14T06:03:40;9.10;99.90
21772;DHT22;11047;47.904;8.110;2023-05-14T06:06:07;9.60;99.90
21772;DHT22;11047;47.904;8.110;2023-05-14T06:08:34;9.00;99.90
21772;DHT22;11047;47.904;8.110;2023-05-14T06:11:01;9.00;99.90
21772;DHT22;11047;47.904;8.110;2023-05-14T06:13:28;9.20;99.90
21772;DHT22;11047;47.904;8.110;2023-05-14T06:15:56;9.00;99.90
21772;DHT22;11047;47.904;8.110;2023-05-14T06:18:23;9.00;99.90
21772;DHT22;11047;47.904;8.110;2023-05-14T06:20:50;9.10;99.90
21772;DHT22;11047;47.904;8.110;2023-05-14T06:23:16;9.10;99.90
21772;DHT22;11047;47.904;8.110;2023-05-14T06:25:43;9.30;99.90
21772;DHT22;11047;47.904;8.110;2023-05-14T06:28:10;9.30;99.90
21772;DHT22;11047;47.904;8.110;2023-05-14T06:30:37;9.20;99.90
21772;DHT22;11047;47.904;8.110;2023-05-14T06:33:05;9.40;99.90
21772;DHT22;11047;47.904;8.110;2023-05-14T06:35:32;9.30;99.90
21772;DHT22;11047;47.904;8.110;2023-05-14T06:37:59;9.50;99.90
21772;DHT22;11047;47.904;8.110;2023-05-14T06:40:26;9.60;99.90
21772;DHT22;11047;47.904;8.110;2023-05-14T06:42:52;9.50;99.90
21772;DHT22;11047;47.904;8.110;2023-05-14T06:45:19;9.60;99.90
21772;DHT22;11047;47.904;8.110;2023-05-14T06:47:46;9.60;99.90
21772;DHT22;11047;47.904;8.110;2023-05-14T06:50:14;9.70;99.90
21772;DHT22;11047;47.904;8.110;2023-05-14T06:52:41;9.80;99.90
21772;DHT22;11047;47.904;8.110;2023-05-14T06:55:09;9.80;99.90
21772;DHT22;11047;47.904;8.110;2023-05-14T06:57:37;10.10;99.90
21772;DHT22;11047;47.904;8.110;2023-05-14T07:00:05;10.00;99.90
21772;DHT22;11047;47.904;8.110;2023-05-14T07:02:33;10.10;99.90
21772;DHT22;11047;47.904;8.110;2023-05-14T07:04:59;10.20;99.90
21772;DHT22;11047;47.904;8.110;2023-05-14T07:07:28;10.30;99.90
21772;DHT22;11047;47.904;8.110;2023-05-14T07:09:54;10.40;99.90
21772;DHT22;11047;47.904;8.110;2023-05-14T07:12:21;10.30;99.90
21772;DHT22;11047;47.904;8.110;2023-05-14T07:14:48;10.20;99.90
21772;DHT22;11047;47.904;8.110;2023-05-14T07:17:15;10.20;99.90
21772;DHT22;11047;47.904;8.110;2023-05-14T07:19:42;10.20;99.90
21772;DHT22;11047;47.904;8.110;2023-05-14T07:22:09;10.30;99.90
21772;DHT22;11047;47.904;8.110;2023-05-14T07:24:37;10.10;99.90
21772;DHT22;11047;47.904;8.110;2023-05-14T07:27:04;10.20;99.90
21772;DHT22;11047;47.904;8.110;2023-05-14T07:29:33;10.40;99.90
21772;DHT22;11047;47.904;8.110;2023-05-14T07:32:00;10.50;99.90
21772;DHT22;11047;47.904;8.110;2023-05-14T07:34:27;10.60;99.90
21772;DHT22;11047;47.904;8.110;2023-05-14T07:36:54;10.70;99.90
21772;DHT22;11047;47.904;8.110;2023-05-14T07:39:21;10.60;99.90
21772;DHT22;11047;47.904;8.110;2023-05-14T07:41:49;10.70;99.90
21772;DHT22;11047;47.904;8.110;2023-05-14T07:44:16;10.70;99.90
21772;DHT22;11047;47.904;8.110;2023-05-14T07:46:43;10.80;99.90
21772;DHT22;11047;47.904;8.110;2023-05-14T07:49:10;10.90;99.90
21772;DHT22;11047;47.904;8.110;2023-05-14T07:51:37;11.10;99.90
21772;DHT22;11047;47.904;8.110;2023-05-14T07:54:04;11.10;99.90
21772;DHT22;11047;47.904;8.110;2023-05-14T07:56:31;11.10;99.90
21772;DHT22;11047;47.904;8.110;2023-05-14T07:58:59;11.10;99.90
21772;DHT22;11047;47.904;8.110;2023-05-14T08:01:26;11.10;99.90
21772;DHT22;11047;47.904;8.110;2023-05-14T08:03:53;11.10;99.90
21772;DHT22;11047;47.904;8.110;2023-05-14T08:06:20;11.10;99.90
21772;DHT22;11047;47.904;8.110;2023-05-14T08:08:48;11.20;99.90
21772;DHT22;11047;47.904;8.110;2023-05-14T08:11:15;11.10;99.90
21772;DHT22;11047;47.904;8.110;2023-05-14T08:13:41;11.10;99.90
21772;DHT22;11047;47.904;8.110;2023-05-14T08:16:10;11.00;99.90
21772;DHT22;11047;47.904;8.110;2023-05-14T08:18:37;11.00;99.90
21772;DHT22;11047;47.904;8.110;2023-05-14T08:21:04;10.90;99.90
21772;DHT22;11047;47.904;8.110;2023-05-14T08:23:31;11.00;99.90
21772;DHT22;11047;47.904;8.110;2023-05-14T08:25:58;11.10;99.90
21772;DHT22;11047;47.904;8.110;2023-05-14T08:28:25;11.10;99.90
21772;DHT22;11047;47.904;8.110;2023-05-14T08:30:51;11.20;99.90
21772;DHT22;11047;47.904;8.110;2023-05-14T08:33:20;11.30;99.90
21772;DHT22;11047;47.904;8.110;2023-05-14T08:35:48;11.40;99.90
21772;DHT22;11047;47.904;8.110;2023-05-14T08:38:15;11.70;99.90
21772;DHT22;11047;47.904;8.110;2023-05-14T08:40:46;11.40;99.90
21772;DHT22;11047;47.904;8.110;2023-05-14T08:43:16;11.30;99.90
21772;DHT22;11047;47.904;8.110;2023-05-14T08:45:45;11.50;99.90
21772;DHT22;11047;47.904;8.110;2023-05-14T08:48:15;11.60;99.90
21772;DHT22;11047;47.904;8.110;2023-05-14T08:50:45;11.70;99.90
21772;DHT22;11047;47.904;8.110;2023-05-14T08:53:11;12.00;99.90
21772;DHT22;11047;47.904;8.110;2023-05-14T08:55:38;12.00;99.90
21772;DHT22;11047;47.904;8.110;2023-05-14T08:58:05;12.10;99.90
21772;DHT22;11047;47.904;8.110;2023-05-14T09:00:33;12.20;99.90
21772;DHT22;11047;47.904;8.110;2023-05-14T09:03:00;12.20;99.90
21772;DHT22;11047;47.904;8.110;2023-05-14T09:05:27;12.30;99.90
21772;DHT22;11047;47.904;8.110;2023-05-14T09:07:55;12.30;99.90
21772;DHT22;11047;47.904;8.110;2023-05-14T09:10:22;12.20;99.90
21772;DHT22;11047;47.904;8.110;2023-05-14T09:12:49;12.30;99.90
21772;DHT22;11047;47.904;8.110;2023-05-14T09:15:16;12.50;99.90
21772;DHT22;11047;47.904;8.110;2023-05-14T09:17:43;12.50;99.90
21772;DHT22;11047;47.904;8.110;2023-05-14T09:20:12;12.30;99.90
21772;DHT22;11047;47.904;8.110;2023-05-14T09:22:41;12.40;99.90
21772;DHT22;11047;47.904;8.110;2023-05-14T09:25:10;12.40;99.90
21772;DHT22;11047;47.904;8.110;2023-05-14T09:27:38;12.10;99.90
21772;DHT22;11047;47.904;8.110;2023-05-14T09:30:07;12.10;99.90
21772;DHT22;11047;47.904;8.110;2023-05-14T09:32:38;12.10;99.90
21772;DHT22;11047;47.904;8.110;2023-05-14T09:35:12;12.10;99.90
21772;DHT22;11047;47.904;8.110;2023-05-14T09:37:42;11.90;99.90
21772;DHT22;11047;47.904;8.110;2023-05-14T09:40:11;11.90;99.90
21772;DHT22;11047;47.904;8.110;2023-05-14T09:42:39;11.90;99.90
21772;DHT22;11047;47.904;8.110;2023-05-14T09:45:07;11.90;99.90
21772;DHT22;11047;47.904;8.110;2023-05-14T09:47:34;12.00;99.90
21772;DHT22;11047;47.904;8.110;2023-05-14T09:50:01;12.10;99.90
21772;DHT22;11047;47.904;8.110;2023-05-14T09:52:28;12.00;99.90
21772;DHT22;11047;47.904;8.110;2023-05-14T09:54:55;12.00;99.90
21772;DHT22;11047;47.904;8.110;2023-05-14T09:57:23;11.80;99.90
21772;DHT22;11047;47.904;8.110;2023-05-14T09:59:51;11.80;99.90
21772;DHT22;11047;47.904;8.110;2023-05-14T10:02:22;11.70;99.90
21772;DHT22;11047;47.904;8.110;2023-05-14T10:04:49;11.80;99.90
21772;DHT22;11047;47.904;8.110;2023-05-14T10:07:21;11.90;99.90
21772;DHT22;11047;47.904;8.110;2023-05-14T10:09:50;12.00;99.90
21772;DHT22;11047;47.904;8.110;2023-05-14T10:12:20;12.20;99.90
21772;DHT22;11047;47.904;8.110;2023-05-14T10:14:49;12.30;99.90
21772;DHT22;11047;47.904;8.110;2023-05-14T10:17:20;12.60;99.90
21772;DHT22;11047;47.904;8.110;2023-05-14T10:19:52;12.90;99.90
21772;DHT22;11047;47.904;8.110;2023-05-14T10:22:22;13.30;99.90
21772;DHT22;11047;47.904;8.110;2023-05-14T10:24:50;13.50;99.90
21772;DHT22;11047;47.904;8.110;2023-05-14T10:27:19;13.50;99.90
21772;DHT22;11047;47.904;8.110;2023-05-14T10:29:52;13.70;99.90
21772;DHT22;11047;47.904;8.110;2023-05-14T10:32:20;13.80;99.90
21772;DHT22;11047;47.904;8.110;2023-05-14T10:34:49;13.90;99.90
21772;DHT22;11047;47.904;8.110;2023-05-14T10:37:18;14.10;99.90
21772;DHT22;11047;47.904;8.110;2023-05-14T10:39:47;14.30;99.90
21772;DHT22;11047;47.904;8.110;2023-05-14T10:42:17;14.20;99.90
21772;DHT22;11047;47.904;8.110;2023-05-14T10:44:51;14.10;99.90
21772;DHT22;11047;47.904;8.110;2023-05-14T10:47:20;13.80;99.90
21772;DHT22;11047;47.904;8.110;2023-05-14T10:49:48;13.80;99.90
21772;DHT22;11047;47.904;8.110;2023-05-14T10:52:16;13.70;99.90
21772;DHT22;11047;47.904;8.110;2023-05-14T10:54:51;13.40;99.90
21772;DHT22;11047;47.904;8.110;2023-05-14T10:57:18;13.40;99.90
21772;DHT22;11047;47.904;8.110;2023-05-14T10:59:46;13.50;99.90
21772;DHT22;11047;47.904;8.110;2023-05-14T11:02:20;13.40;99.90
21772;DHT22;11047;47.904;8.110;2023-05-14T11:04:55;13.40;99.90
21772;DHT22;11047;47.904;8.110;2023-05-14T11:07:24;13.20;99.90
21772;DHT22;11047;47.904;8.110;2023-05-14T11:09:53;12.90;99.90
21772;DHT22;11047;47.904;8.110;2023-05-14T11:12:22;13.10;99.90
21772;DHT22;11047;47.904;8.110;2023-05-14T11:14:49;13.00;99.90
21772;DHT22;11047;47.904;8.110;2023-05-14T11:17:16;12.90;99.90
21772;DHT22;11047;47.904;8.110;2023-05-14T11:19:45;12.70;99.90
21772;DHT22;11047;47.904;8.110;2023-05-14T11:22:11;12.60;99.90
21772;DHT22;11047;47.904;8.110;2023-05-14T11:24:39;12.60;99.90
21772;DHT22;11047;47.904;8.110;2023-05-14T11:27:07;12.60;99.90
21772;DHT22;11047;47.904;8.110;2023-05-14T11:29:34;12.50;99.90
21772;DHT22;11047;47.904;8.110;2023-05-14T11:32:03;12.60;99.90
21772;DHT22;11047;47.904;8.110;2023-05-14T11:34:30;12.40;99.90
21772;DHT22;11047;47.904;8.110;2023-05-14T11:37:01;12.40;99.90
21772;DHT22;11047;47.904;8.110;2023-05-14T11:39:28;12.20;99.90
21772;DHT22;11047;47.904;8.110;2023-05-14T11:41:56;11.90;99.90
21772;DHT22;11047;47.904;8.110;2023-05-14T11:44:23;12.10;99.90
21772;DHT22;11047;47.904;8.110;2023-05-14T11:46:54;12.10;99.90
21772;DHT22;11047;47.904;8.110;2023-05-14T11:49:21;11.80;99.90
21772;DHT22;11047;47.904;8.110;2023-05-14T11:51:48;11.70;99.90
21772;DHT22;11047;47.904;8.110;2023-05-14T11:54:17;11.60;99.90
21772;DHT22;11047;47.904;8.110;2023-05-14T11:56:49;11.50;99.90
21772;DHT22;11047;47.904;8.110;2023-05-14T11:59:17;11.60;99.90
21772;DHT22;11047;47.904;8.110;2023-05-14T12:01:44;11.80;99.90
21772;DHT22;11047;47.904;8.110;2023-05-14T12:04:11;11.90;99.90
21772;DHT22;11047;47.904;8.110;2023-05-14T12:06:38;12.00;99.90
21772;DHT22;11047;47.904;8.110;2023-05-14T12:09:05;12.20;99.90
21772;DHT22;11047;47.904;8.110;2023-05-14T12:11:35;12.40;99.90
21772;DHT22;11047;47.904;8.110;2023-05-14T12:14:10;12.40;99.90
21772;DHT22;11047;47.904;8.110;2023-05-14T12:16:39;12.40;99.90
21772;DHT22;11047;47.904;8.110;2023-05-14T12:19:08;12.30;99.90
21772;DHT22;11047;47.904;8.110;2023-05-14T12:21:36;12.40;99.90
21772;DHT22;11047;47.904;8.110;2023-05-14T12:24:04;12.40;99.90
21772;DHT22;11047;47.904;8.110;2023-05-14T12:26:33;12.20;99.90
21772;DHT22;11047;47.904;8.110;2023-05-14T12:29:01;12.30;99.90
21772;DHT22;11047;47.904;8.110;2023-05-14T12:31:29;12.10;99.90
21772;DHT22;11047;47.904;8.110;2023-05-14T12:33:56;12.30;99.90
21772;DHT22;11047;47.904;8.110;2023-05-14T12:36:23;12.20;99.90
21772;DHT22;11047;47.904;8.110;2023-05-14T12:38:58;12.20;99.90
21772;DHT22;11047;47.904;8.110;2023-05-14T12:41:25;12.10;99.90
21772;DHT22;11047;47.904;8.110;2023-05-14T12:43:53;12.00;99.90
21772;DHT22;11047;47.904;8.110;2023-05-14T12:46:20;12.30;99.90
21772;DHT22;11047;47.904;8.110;2023-05-14T12:48:47;12.30;99.90
21772;DHT22;11047;47.904;8.110;2023-05-14T12:51:14;12.30;99.90
21772;DHT22;11047;47.904;8.110;2023-05-14T12:53:41;12.20;99.90
21772;DHT22;11047;47.904;8.110;2023-05-14T12:56:08;12.40;99.90
21772;DHT22;11047;47.904;8.110;2023-05-14T12:58:35;11.90;99.90
21772;DHT22;11047;47.904;8.110;2023-05-14T13:01:04;11.60;99.90
21772;DHT22;11047;47.904;8.110;2023-05-14T13:03:31;11.50;99.90
21772;DHT22;11047;47.904;8.110;2023-05-14T13:05:58;11.50;99.90
21772;DHT22;11047;47.904;8.110;2023-05-14T13:08:25;11.70;99.90
21772;DHT22;11047;47.904;8.110;2023-05-14T13:10:53;11.40;99.90
21772;DHT22;11047;47.904;8.110;2023-05-14T13:13:20;11.50;99.90
21772;DHT22;11047;47.904;8.110;2023-05-14T13:15:47;11.50;99.90
21772;DHT22;11047;47.904;8.110;2023-05-14T13:18:16;11.40;99.90
21772;DHT22;11047;47.904;8.110;2023-05-14T13:20:45;11.20;99.90
21772;DHT22;11047;47.904;8.110;2023-05-14T13:23:13;11.30;99.90
21772;DHT22;11047;47.904;8.110;2023-05-14T13:25:39;11.40;99.90
21772;DHT22;11047;47.904;8.110;2023-05-14T13:28:07;11.40;99.90
21772;DHT22;11047;47.904;8.110;2023-05-14T13:30:34;11.50;99.90
21772;DHT22;11047;47.904;8.110;2023-05-14T13:33:01;11.30;99.90
21772;DHT22;11047;47.904;8.110;2023-05-14T13:35:29;11.20;99.90
21772;DHT22;11047;47.904;8.110;2023-05-14T13:37:56;11.00;99.90
21772;DHT22;11047;47.904;8.110;2023-05-14T13:40:23;11.20;99.90
21772;DHT22;11047;47.904;8.110;2023-05-14T13:42:50;11.10;99.90
21772;DHT22;11047;47.904;8.110;2023-05-14T13:45:17;11.20;99.90
21772;DHT22;11047;47.904;8.110;2023-05-14T13:47:44;11.20;99.90
21772;DHT22;11047;47.904;8.110;2023-05-14T13:50:11;11.20;99.90
21772;DHT22;11047;47.904;8.110;2023-05-14T13:52:39;11.10;99.90
21772;DHT22;11047;47.904;8.110;2023-05-14T13:55:07;11.40;99.90
21772;DHT22;11047;47.904;8.110;2023-05-14T13:57:34;11.20;99.90
21772;DHT22;11047;47.904;8.110;2023-05-14T14:00:01;11.30;99.90
21772;DHT22;11047;47.904;8.110;2023-05-14T14:02:29;11.30;99.90
21772;DHT22;11047;47.904;8.110;2023-05-14T14:04:56;11.40;99.90
21772;DHT22;11047;47.904;8.110;2023-05-14T14:07:23;11.30;99.90
21772;DHT22;11047;47.904;8.110;2023-05-14T14:09:51;11.40;99.90
21772;DHT22;11047;47.904;8.110;2023-05-14T14:12:18;11.60;99.90
21772;DHT22;11047;47.904;8.110;2023-05-14T14:14:45;11.60;99.90
21772;DHT22;11047;47.904;8.110;2023-05-14T14:17:12;11.70;99.90
21772;DHT22;11047;47.904;8.110;2023-05-14T14:19:38;11.80;99.90
21772;DHT22;11047;47.904;8.110;2023-05-14T14:22:05;12.10;99.90
21772;DHT22;11047;47.904;8.110;2023-05-14T14:24:32;12.10;99.90
21772;DHT22;11047;47.904;8.110;2023-05-14T14:27:00;12.40;99.90
21772;DHT22;11047;47.904;8.110;2023-05-14T14:29:27;12.70;99.90
21772;DHT22;11047;47.904;8.110;2023-05-14T14:31:55;13.10;99.90
21772;DHT22;11047;47.904;8.110;2023-05-14T14:34:22;13.30;99.90
21772;DHT22;11047;47.904;8.110;2023-05-14T14:36:49;13.40;99.90
21772;DHT22;11047;47.904;8.110;2023-05-14T14:39:16;13.70;99.90
21772;DHT22;11047;47.904;8.110;2023-05-14T14:41:43;13.50;99.90
21772;DHT22;11047;47.904;8.110;2023-05-14T14:44:11;13.40;99.90
21772;DHT22;11047;47.904;8.110;2023-05-14T14:46:38;13.10;99.90
21772;DHT22;11047;47.904;8.110;2023-05-14T14:49:07;13.00;99.90
21772;DHT22;11047;47.904;8.110;2023-05-14T14:51:34;12.90;99.90
21772;DHT22;11047;47.904;8.110;2023-05-14T14:54:01;12.90;99.90
21772;DHT22;11047;47.904;8.110;2023-05-14T14:56:29;12.60;99.90
21772;DHT22;11047;47.904;8.110;2023-05-14T14:58:56;12.40;99.90
21772;DHT22;11047;47.904;8.110;2023-05-14T15:01:24;12.20;99.90
21772;DHT22;11047;47.904;8.110;2023-05-14T15:03:51;12.20;99.90
21772;DHT22;11047;47.904;8.110;2023-05-14T15:06:18;12.10;99.90
21772;DHT22;11047;47.904;8.110;2023-05-14T15:08:45;12.10;99.90
21772;DHT22;11047;47.904;8.110;2023-05-14T15:11:12;12.20;99.90
21772;DHT22;11047;47.904;8.110;2023-05-14T15:13:39;12.30;99.90
21772;DHT22;11047;47.904;8.110;2023-05-14T15:16:07;12.30;99.90
21772;DHT22;11047;47.904;8.110;2023-05-14T15:18:35;12.30;99.90
21772;DHT22;11047;47.904;8.110;2023-05-14T15:21:02;12.10;99.90
21772;DHT22;11047;47.904;8.110;2023-05-14T15:23:29;12.10;99.90
21772;DHT22;11047;47.904;8.110;2023-05-14T15:25:56;12.10;99.90
21772;DHT22;11047;47.904;8.110;2023-05-14T15:28:23;12.20;99.90
21772;DHT22;11047;47.904;8.110;2023-05-14T15:30:50;12.40;99.90
21772;DHT22;11047;47.904;8.110;2023-05-14T15:33:17;12.40;99.90
21772;DHT22;11047;47.904;8.110;2023-05-14T15:35:45;12.50;99.90
21772;DHT22;11047;47.904;8.110;2023-05-14T15:38:12;12.70;99.90
21772;DHT22;11047;47.904;8.110;2023-05-14T15:40:39;12.70;99.90